createdAt,value
2023-03-20T00:01:30.681Z,9.16
2023-03-20T00:03:58.345Z,8.82
2023-03-20T00:06:27.156Z,8.78
2023-03-20T00:08:55.198Z,8.89
2023-03-20T00:11:30.998Z,8.91
2023-03-20T00:14:01.503Z,8.88
2023-03-20T00:16:43.189Z,8.72
2023-03-20T00:19:26.020Z,8.88
2023-03-20T00:21:54.996Z,8.60
2023-03-20T00:24:22.964Z,8.79
2023-03-20T00:26:51.177Z,8.95
2023-03-20T00:29:36.751Z,8.84
2023-03-20T00:32:04.074Z,8.90
2023-03-20T00:34:32.205Z,8.92
2023-03-20T00:37:00.104Z,9.06
2023-03-20T00:39:29.805Z,9.00
2023-03-20T00:42:06.254Z,8.85
2023-03-20T00:44:36.925Z,8.70
2023-03-20T00:47:06.733Z,8.50
2023-03-20T00:49:38.660Z,8.48
2023-03-20T00:52:09.819Z,8.56
2023-03-20T00:54:37.065Z,8.57
2023-03-20T00:57:14.495Z,8.73
2023-03-20T00:59:58.490Z,8.19
2023-03-20T01:02:28.969Z,8.17
2023-03-20T01:04:57.485Z,8.22
2023-03-20T01:07:27.648Z,8.14
2023-03-20T01:09:55.664Z,8.57
2023-03-20T01:12:23.889Z,8.72
2023-03-20T01:14:56.559Z,8.83
2023-03-20T01:17:25.294Z,8.68
2023-03-20T01:19:52.644Z,8.31
2023-03-20T01:22:20.025Z,8.59
2023-03-20T01:24:48.396Z,8.61
2023-03-20T01:27:18.568Z,8.51
2023-03-20T01:29:46.844Z,8.58
2023-03-20T01:32:17.925Z,8.64
2023-03-20T01:34:48.679Z,8.19
2023-03-20T01:37:23.286Z,8.13
2023-03-20T01:39:51.687Z,8.27
2023-03-20T01:42:19.347Z,8.23
2023-03-20T01:44:46.866Z,8.22
2023-03-20T01:47:21.125Z,8.31
2023-03-20T01:50:22.843Z,8.28
2023-03-20T01:53:07.679Z,8.41
2023-03-20T01:55:40.917Z,8.47
2023-03-20T01:58:15.341Z,8.59
2023-03-20T02:00:42.767Z,8.34
2023-03-20T02:03:14.241Z,8.07
2023-03-20T02:06:16.936Z,8.36
2023-03-20T02:08:59.134Z,8.54
2023-03-20T02:11:29.243Z,8.73
2023-03-20T02:13:58.935Z,8.61
2023-03-20T02:16:29.570Z,8.65
2023-03-20T02:19:11.359Z,8.65
2023-03-20T02:22:21.961Z,8.44
2023-03-20T02:25:15.928Z,8.54
2023-03-20T02:28:21.156Z,8.50
2023-03-20T02:31:14.734Z,8.46
2023-03-20T02:34:02.440Z,8.43
2023-03-20T02:36:54.226Z,8.39
2023-03-20T02:39:26.724Z,8.18
2023-03-20T02:42:00.191Z,8.16
2023-03-20T02:44:39.468Z,7.93
2023-03-20T02:47:14.720Z,7.71
2023-03-20T02:49:52.898Z,7.71
2023-03-20T02:52:51.782Z,7.72
2023-03-20T02:55:33.921Z,7.68
2023-03-20T02:58:09.309Z,7.62
2023-03-20T03:00:48.574Z,7.78
2023-03-20T03:03:34.352Z,7.75
2023-03-20T03:06:09.073Z,7.70
2023-03-20T03:08:41.359Z,7.89
2023-03-20T03:11:09.811Z,7.89
2023-03-20T03:13:42.146Z,7.99
2023-03-20T03:16:14.530Z,7.70
2023-03-20T03:18:42.949Z,7.59
2023-03-20T03:21:14.125Z,7.64
2023-03-20T03:23:49.138Z,7.79
2023-03-20T03:26:28.293Z,7.81
2023-03-20T03:29:02.679Z,8.02
2023-03-20T03:31:30.923Z,8.06
2023-03-20T03:33:59.784Z,8.10
2023-03-20T03:36:39.903Z,8.02
2023-03-20T03:39:19.487Z,7.80
2023-03-20T03:41:56.542Z,7.91
2023-03-20T03:44:47.071Z,8.02
2023-03-20T03:47:33.433Z,7.74
2023-03-20T03:50:05.663Z,7.62
2023-03-20T03:52:33.489Z,7.74
2023-03-20T03:55:03.947Z,7.85
2023-03-20T03:57:44.635Z,7.94
2023-03-20T04:00:18.144Z,7.99
2023-03-20T04:02:47.493Z,7.95
2023-03-20T04:05:16.192Z,8.00
2023-03-20T04:07:47.343Z,8.10
2023-03-20T04:10:15.456Z,7.75
2023-03-20T04:12:44.388Z,7.90
2023-03-20T04:15:12.824Z,7.84
2023-03-20T04:17:40.297Z,7.65
2023-03-20T04:20:09.915Z,7.71
2023-03-20T04:22:37.312Z,7.77
2023-03-20T04:25:16.291Z,7.74
2023-03-20T04:27:43.600Z,7.71
2023-03-20T04:30:18.985Z,7.84
2023-03-20T04:33:05.191Z,8.01
2023-03-20T04:35:44.432Z,8.28
2023-03-20T04:38:15.940Z,8.14
2023-03-20T04:40:44.920Z,8.20
2023-03-20T04:43:13.149Z,8.37
2023-03-20T04:45:41.504Z,8.49
2023-03-20T04:48:09.965Z,8.40
2023-03-20T04:50:37.669Z,8.34
2023-03-20T04:53:06.660Z,8.24
2023-03-20T04:55:34.633Z,8.48
2023-03-20T04:58:02.046Z,8.40
2023-03-20T05:00:30.205Z,8.43
2023-03-20T05:02:57.430Z,8.53
2023-03-20T05:05:25.698Z,8.64
2023-03-20T05:07:53.674Z,8.54
2023-03-20T05:10:30.696Z,8.51
2023-03-20T05:13:06.252Z,8.68
2023-03-20T05:15:54.030Z,8.59
2023-03-20T05:18:46.540Z,8.52
2023-03-20T05:21:32.457Z,8.20
2023-03-20T05:24:27.492Z,8.42
2023-03-20T05:27:17.949Z,8.45
2023-03-20T05:30:02.977Z,8.59
2023-03-20T05:32:51.026Z,8.67
2023-03-20T05:35:27.602Z,8.59
2023-03-20T05:38:23.484Z,8.61
2023-03-20T05:41:11.220Z,8.62
2023-03-20T05:43:46.484Z,8.77
2023-03-20T05:46:33.304Z,8.69
2023-03-20T05:49:09.719Z,8.75
2023-03-20T05:51:57.022Z,8.63
2023-03-20T05:54:31.756Z,8.65
2023-03-20T05:57:22.333Z,8.62
2023-03-20T05:59:52.750Z,8.87
2023-03-20T06:02:38.965Z,8.87
2023-03-20T06:05:26.159Z,8.92
2023-03-20T06:07:53.952Z,8.87
2023-03-20T06:10:21.138Z,8.95
2023-03-20T06:12:53.611Z,9.02
2023-03-20T06:15:29.194Z,8.87
2023-03-20T06:18:04.425Z,8.95
2023-03-20T06:20:32.202Z,9.03
2023-03-20T06:23:02.680Z,9.25
2023-03-20T06:25:30.585Z,8.99
2023-03-20T06:27:58.294Z,8.95
2023-03-20T06:30:25.727Z,9.05
2023-03-20T06:32:54.432Z,9.21
2023-03-20T06:35:24.393Z,9.09
2023-03-20T06:37:51.908Z,8.93
2023-03-20T06:40:23.549Z,9.10
2023-03-20T06:42:51.208Z,9.15
2023-03-20T06:45:19.640Z,9.29
2023-03-20T06:48:02.314Z,9.41
2023-03-20T06:50:30.766Z,9.24
2023-03-20T06:52:59.626Z,9.20
2023-03-20T06:55:32.899Z,9.13
2023-03-20T06:58:00.769Z,9.17
2023-03-20T07:00:29.773Z,9.30
2023-03-20T07:02:59.424Z,9.31
2023-03-20T07:05:28.647Z,9.56
2023-03-20T07:07:57.189Z,9.45
2023-03-20T07:10:24.628Z,9.55
2023-03-20T07:12:53.587Z,9.63
2023-03-20T07:15:21.221Z,10.04
2023-03-20T07:17:49.633Z,10.22
2023-03-20T07:20:17.186Z,10.14
2023-03-20T07:22:44.547Z,10.21
2023-03-20T07:25:20.562Z,10.21
2023-03-20T07:27:54.740Z,10.16
2023-03-20T07:30:24.594Z,10.23
2023-03-20T07:32:52.564Z,10.33
2023-03-20T07:35:21.175Z,10.12
2023-03-20T07:37:48.589Z,10.28
2023-03-20T07:40:16.217Z,10.22
2023-03-20T07:42:52.807Z,10.08
2023-03-20T07:45:39.033Z,10.02
2023-03-20T07:48:06.852Z,10.22
2023-03-20T07:50:34.270Z,10.23
2023-03-20T07:53:02.280Z,10.30
2023-03-20T07:55:29.537Z,10.42
2023-03-20T07:57:56.822Z,10.39
2023-03-20T08:00:26.104Z,10.47
2023-03-20T08:02:57.058Z,10.39
2023-03-20T08:05:25.035Z,10.63
2023-03-20T08:07:52.934Z,10.68
2023-03-20T08:10:20.502Z,10.72
2023-03-20T08:12:47.734Z,10.80
2023-03-20T08:15:15.298Z,10.95
2023-03-20T08:17:44.629Z,10.97
2023-03-20T08:20:14.465Z,10.99
2023-03-20T08:22:42.814Z,11.08
2023-03-20T08:25:10.824Z,11.26
2023-03-20T08:27:38.804Z,11.26
2023-03-20T08:30:07.149Z,11.19
2023-03-20T08:32:34.514Z,11.05
2023-03-20T08:35:01.848Z,11.13
2023-03-20T08:37:29.224Z,11.32
2023-03-20T08:39:56.455Z,11.47
2023-03-20T08:42:23.972Z,11.51
2023-03-20T08:44:51.346Z,11.64
2023-03-20T08:47:19.724Z,11.72
2023-03-20T08:49:47.228Z,11.83
2023-03-20T08:52:14.735Z,11.90
2023-03-20T08:54:42.417Z,11.97
2023-03-20T08:57:10.364Z,11.91
2023-03-20T08:59:38.011Z,11.78
2023-03-20T09:02:05.958Z,11.91
2023-03-20T09:04:33.451Z,11.95
2023-03-20T09:07:03.074Z,12.18
2023-03-20T09:09:30.943Z,12.09
2023-03-20T09:11:59.356Z,12.26
2023-03-20T09:14:28.670Z,12.44
2023-03-20T09:16:56.371Z,12.42
2023-03-20T09:19:23.741Z,12.72
2023-03-20T09:21:51.224Z,12.48
2023-03-20T09:24:18.616Z,12.63
2023-03-20T09:26:45.952Z,12.66
2023-03-20T09:29:13.353Z,12.74
2023-03-20T09:31:41.153Z,12.97
2023-03-20T09:34:08.838Z,13.23
2023-03-20T09:36:36.584Z,13.29
2023-03-20T09:39:04.749Z,13.36
2023-03-20T09:41:49.247Z,13.32
2023-03-20T09:45:13.544Z,13.31
2023-03-20T09:47:54.768Z,13.41
2023-03-20T09:50:38.715Z,13.21
2023-03-20T09:53:24.939Z,13.29
2023-03-20T09:55:53.906Z,13.36
2023-03-20T09:58:25.775Z,13.28
2023-03-20T10:00:56.196Z,13.26
2023-03-20T10:03:30.004Z,13.31
2023-03-20T10:06:03.585Z,13.34
2023-03-20T10:08:36.931Z,13.23
2023-03-20T10:11:10.237Z,13.42
2023-03-20T10:13:37.409Z,13.17
2023-03-20T10:16:12.724Z,13.13
2023-03-20T10:18:47.104Z,13.49
2023-03-20T10:21:24.178Z,13.30
2023-03-20T10:24:04.643Z,13.18
2023-03-20T10:26:36.246Z,12.81
2023-03-20T10:29:26.203Z,13.03
2023-03-20T10:32:02.826Z,13.17
2023-03-20T10:34:52.225Z,13.45
2023-03-20T10:37:32.686Z,13.76
2023-03-20T10:40:05.774Z,13.75
2023-03-20T10:42:39.619Z,13.80
2023-03-20T10:45:14.883Z,13.74
2023-03-20T10:47:48.536Z,14.06
2023-03-20T10:50:19.041Z,14.02
2023-03-20T10:52:48.605Z,14.15
2023-03-20T10:55:22.725Z,13.96
2023-03-20T10:57:56.685Z,14.54
2023-03-20T11:00:26.374Z,14.69
2023-03-20T11:02:53.681Z,14.71
2023-03-20T11:05:21.062Z,14.99
2023-03-20T11:07:52.844Z,14.82
2023-03-20T11:10:20.568Z,14.70
2023-03-20T11:12:49.209Z,14.78
2023-03-20T11:15:21.816Z,14.97
2023-03-20T11:18:07.291Z,15.18
2023-03-20T11:20:39.701Z,15.02
2023-03-20T11:23:10.754Z,14.86
2023-03-20T11:25:40.034Z,14.83
2023-03-20T11:28:19.677Z,14.95
2023-03-20T11:31:03.849Z,15.16
2023-03-20T11:33:40.338Z,15.28
2023-03-20T11:36:30.299Z,15.00
2023-03-20T11:39:27.932Z,15.46
2023-03-20T11:41:57.024Z,15.33
2023-03-20T11:44:26.741Z,15.48
2023-03-20T11:47:05.700Z,15.28
2023-03-20T11:49:34.974Z,15.30
2023-03-20T11:52:11.443Z,15.06
2023-03-20T11:54:46.604Z,15.14
2023-03-20T11:57:46.206Z,14.70
2023-03-20T12:00:21.489Z,14.70
2023-03-20T12:02:48.982Z,14.99
2023-03-20T12:05:33.133Z,15.00
2023-03-20T12:08:14.142Z,14.90
2023-03-20T12:10:43.697Z,14.93
2023-03-20T12:13:21.635Z,15.15
2023-03-20T12:15:55.820Z,15.41
2023-03-20T12:18:26.969Z,15.37
2023-03-20T12:21:10.294Z,15.35
2023-03-20T12:23:48.209Z,15.52
2023-03-20T12:26:20.504Z,15.77
2023-03-20T12:28:52.540Z,15.97
2023-03-20T12:31:34.277Z,16.00
2023-03-20T12:34:16.480Z,16.17
2023-03-20T12:36:52.954Z,16.20
2023-03-20T12:39:25.327Z,16.30
2023-03-20T12:42:02.317Z,16.63
2023-03-20T12:44:43.469Z,16.55
2023-03-20T12:47:33.284Z,16.48
2023-03-20T12:50:25.489Z,16.16
2023-03-20T12:53:11.749Z,16.40
2023-03-20T12:55:54.866Z,16.25
2023-03-20T12:58:36.634Z,16.59
2023-03-20T13:01:07.372Z,16.54
2023-03-20T13:04:12.549Z,16.01
2023-03-20T13:06:51.994Z,16.14
2023-03-20T13:09:57.300Z,15.56
2023-03-20T13:12:45.964Z,15.59
2023-03-20T13:15:23.919Z,15.89
2023-03-20T13:17:51.786Z,15.46
2023-03-20T13:20:27.014Z,15.22
2023-03-20T13:22:59.264Z,15.53
2023-03-20T13:25:35.848Z,15.59
2023-03-20T13:28:13.569Z,15.79
2023-03-20T13:30:50.339Z,15.83
2023-03-20T13:33:38.753Z,15.78
2023-03-20T13:36:19.140Z,16.06
2023-03-20T13:38:50.283Z,16.15
2023-03-20T13:41:17.697Z,16.24
2023-03-20T13:43:54.222Z,16.42
2023-03-20T13:46:27.961Z,16.20
2023-03-20T13:48:59.145Z,16.18
2023-03-20T13:51:34.438Z,16.19
2023-03-20T13:54:01.808Z,16.26
2023-03-20T13:56:44.797Z,16.39
2023-03-20T13:59:33.621Z,16.57
2023-03-20T14:02:18.839Z,16.11
2023-03-20T14:04:47.665Z,16.11
2023-03-20T14:07:33.957Z,16.12
2023-03-20T14:10:37.420Z,16.48
2023-03-20T14:13:10.136Z,16.36
2023-03-20T14:15:39.111Z,16.29
2023-03-20T14:18:13.441Z,16.41
2023-03-20T14:20:42.595Z,16.35
2023-03-20T14:23:30.066Z,16.56
2023-03-20T14:25:59.280Z,16.45
2023-03-20T14:28:31.549Z,16.36
2023-03-20T14:31:26.430Z,16.22
2023-03-20T14:34:12.184Z,16.46
2023-03-20T14:36:53.086Z,16.63
2023-03-20T14:39:44.530Z,16.83
2023-03-20T14:42:36.127Z,16.71
2023-03-20T14:45:42.457Z,16.92
2023-03-20T14:48:32.671Z,16.78
2023-03-20T14:51:11.856Z,16.76
2023-03-20T14:53:40.813Z,16.87
2023-03-20T14:56:13.647Z,16.56
2023-03-20T14:58:43.707Z,16.47
2023-03-20T15:01:26.153Z,16.45
2023-03-20T15:04:11.131Z,16.50
2023-03-20T15:06:49.985Z,16.48
2023-03-20T15:09:18.127Z,16.34
2023-03-20T15:11:46.640Z,16.35
2023-03-20T15:14:20.580Z,16.50
2023-03-20T15:16:47.967Z,16.57
2023-03-20T15:19:18.567Z,16.34
2023-03-20T15:21:48.031Z,16.43
2023-03-20T15:24:27.202Z,16.50
2023-03-20T15:26:57.986Z,16.55
2023-03-20T15:29:25.795Z,16.54
2023-03-20T15:32:12.476Z,16.29
2023-03-20T15:34:42.500Z,16.48
2023-03-20T15:37:15.359Z,16.24
2023-03-20T15:39:48.536Z,15.93
2023-03-20T15:42:18.315Z,15.97
2023-03-20T15:44:48.304Z,16.01
2023-03-20T15:47:21.316Z,16.14
2023-03-20T15:49:54.828Z,16.11
2023-03-20T15:52:42.633Z,16.12
2023-03-20T15:55:14.760Z,16.14
2023-03-20T15:57:44.952Z,16.15
2023-03-20T16:00:16.902Z,16.09
2023-03-20T16:02:48.277Z,16.11
2023-03-20T16:05:16.587Z,16.23
2023-03-20T16:07:44.184Z,16.30
2023-03-20T16:10:34.315Z,16.36
2023-03-20T16:13:01.585Z,16.19
2023-03-20T16:15:31.655Z,16.22
2023-03-20T16:18:01.952Z,16.21
2023-03-20T16:20:35.486Z,16.48
2023-03-20T16:23:08.561Z,16.57
2023-03-20T16:25:36.983Z,16.46
2023-03-20T16:28:07.415Z,16.30
2023-03-20T16:30:35.632Z,16.32
2023-03-20T16:33:12.943Z,15.79
2023-03-20T16:35:44.171Z,15.98
2023-03-20T16:38:26.012Z,16.08
2023-03-20T16:40:59.897Z,15.92
2023-03-20T16:43:30.945Z,16.06
2023-03-20T16:46:05.696Z,15.93
2023-03-20T16:48:37.493Z,16.11
2023-03-20T16:51:26.377Z,16.06
2023-03-20T16:53:59.172Z,16.18
2023-03-20T16:56:29.771Z,16.05
2023-03-20T16:58:57.397Z,15.89
2023-03-20T17:01:27.646Z,16.06
2023-03-20T17:04:11.915Z,15.67
2023-03-20T17:06:44.736Z,15.83
2023-03-20T17:09:25.850Z,15.97
2023-03-20T17:12:05.984Z,15.78
2023-03-20T17:14:34.381Z,16.01
2023-03-20T17:17:02.301Z,15.98
2023-03-20T17:19:32.407Z,16.10
2023-03-20T17:22:03.515Z,16.03
2023-03-20T17:24:31.034Z,15.91
2023-03-20T17:26:58.891Z,16.00
2023-03-20T17:29:27.117Z,15.82
2023-03-20T17:31:54.709Z,15.97
2023-03-20T17:34:22.468Z,15.91
2023-03-20T17:36:50.814Z,15.90
2023-03-20T17:39:19.818Z,16.09
2023-03-20T17:41:47.792Z,16.11
2023-03-20T17:44:16.224Z,16.23
2023-03-20T17:46:57.181Z,16.06
2023-03-20T17:49:27.530Z,15.99
2023-03-20T17:51:55.582Z,15.84
2023-03-20T17:54:22.859Z,15.66
2023-03-20T17:56:50.523Z,15.57
2023-03-20T17:59:18.420Z,15.51
2023-03-20T18:01:45.870Z,15.74
2023-03-20T18:04:13.212Z,15.70
2023-03-20T18:06:40.599Z,15.44
2023-03-20T18:09:12.664Z,15.59
2023-03-20T18:11:41.907Z,15.68
2023-03-20T18:14:09.238Z,15.61
2023-03-20T18:16:36.581Z,15.57
2023-03-20T18:19:03.835Z,15.41
2023-03-20T18:21:31.203Z,15.30
2023-03-20T18:23:58.438Z,15.34
2023-03-20T18:26:27.466Z,15.54
2023-03-20T18:28:55.623Z,15.69
2023-03-20T18:31:23.335Z,15.52
2023-03-20T18:33:52.883Z,15.41
2023-03-20T18:36:22.273Z,15.41
2023-03-20T18:38:50.731Z,15.37
2023-03-20T18:41:17.992Z,15.58
2023-03-20T18:43:46.654Z,15.43
2023-03-20T18:46:21.032Z,15.26
2023-03-20T18:48:49.703Z,15.43
2023-03-20T18:51:17.011Z,15.33
2023-03-20T18:53:44.558Z,15.46
2023-03-20T18:56:19.248Z,15.51
2023-03-20T18:58:47.498Z,15.45
2023-03-20T19:01:15.968Z,15.53
2023-03-20T19:03:44.689Z,15.24
2023-03-20T19:06:14.807Z,15.24
2023-03-20T19:08:42.516Z,15.05
2023-03-20T19:11:15.419Z,15.10
2023-03-20T19:13:51.115Z,15.11
2023-03-20T19:16:26.251Z,15.00
2023-03-20T19:18:55.467Z,15.12
2023-03-20T19:21:26.329Z,15.26
2023-03-20T19:23:55.314Z,15.49
2023-03-20T19:26:27.156Z,15.43
2023-03-20T19:28:56.180Z,15.31
2023-03-20T19:31:24.852Z,15.18
2023-03-20T19:33:52.456Z,15.15
2023-03-20T19:36:26.877Z,15.26
2023-03-20T19:38:55.106Z,15.39
2023-03-20T19:41:22.425Z,15.46
2023-03-20T19:43:55.579Z,15.59
2023-03-20T19:46:39.733Z,15.44
2023-03-20T19:49:17.961Z,15.15
2023-03-20T19:51:46.184Z,15.34
2023-03-20T19:54:13.509Z,15.19
2023-03-20T19:56:40.845Z,15.18
2023-03-20T19:59:08.440Z,15.19
2023-03-20T20:01:36.514Z,15.12
2023-03-20T20:04:04.126Z,15.19
2023-03-20T20:06:33.004Z,15.31
2023-03-20T20:09:01.559Z,15.10
2023-03-20T20:11:29.338Z,14.91
2023-03-20T20:14:06.732Z,14.98
2023-03-20T20:20:14.229Z,14.73
2023-03-20T20:22:41.945Z,14.74
2023-03-20T20:25:11.146Z,14.83
2023-03-20T20:27:39.090Z,14.90
2023-03-20T20:30:10.383Z,14.82
2023-03-20T20:32:38.774Z,14.77
2023-03-20T20:35:38.815Z,14.82
2023-03-20T20:40:43.844Z,14.98
2023-03-20T20:43:11.498Z,14.94
2023-03-20T20:45:39.126Z,14.76
2023-03-20T20:48:07.322Z,14.79
2023-03-20T20:50:39.143Z,14.94
2023-03-20T20:53:08.187Z,14.69
2023-03-20T20:55:35.551Z,14.40
2023-03-20T20:58:04.058Z,14.50
2023-03-20T21:00:45.768Z,14.70
2023-03-20T21:03:16.274Z,14.46
2023-03-20T21:05:43.613Z,14.73
2023-03-20T21:08:12.047Z,14.70
2023-03-20T21:10:40.061Z,14.87
2023-03-20T21:13:08.393Z,14.85
2023-03-20T21:15:36.546Z,14.74
2023-03-20T21:18:04.129Z,14.62
2023-03-20T21:20:32.143Z,14.63
2023-03-20T21:23:00.479Z,14.50
2023-03-20T21:25:47.101Z,14.41
2023-03-20T21:28:15.226Z,14.30
2023-03-20T21:31:16.202Z,14.23
2023-03-20T21:33:35.765Z,14.55
2023-03-20T21:36:04.222Z,14.46
2023-03-20T21:39:06.847Z,14.23
2023-03-20T21:41:19.876Z,14.34
2023-03-20T21:43:47.626Z,14.42
2023-03-20T21:46:46.749Z,14.22
2023-03-20T21:55:12.951Z,14.26
2023-03-20T22:01:03.218Z,14.54
2023-03-20T22:03:09.935Z,14.42
2023-03-20T22:09:19.769Z,14.22
2023-03-20T22:23:18.316Z,14.07
2023-03-20T22:42:35.306Z,14.02
2023-03-20T22:45:02.862Z,13.89
2023-03-20T22:47:31.336Z,13.82
2023-03-20T22:49:58.939Z,13.83
2023-03-20T22:52:37.902Z,14.07
2023-03-20T22:55:09.823Z,14.16
2023-03-20T22:57:45.521Z,14.14
2023-03-20T23:00:17.640Z,14.01
2023-03-20T23:02:45.959Z,14.19
2023-03-20T23:05:13.864Z,14.07
2023-03-20T23:07:41.201Z,13.97
2023-03-20T23:10:09.921Z,13.83
2023-03-20T23:12:38.172Z,13.90
2023-03-20T23:15:06.558Z,14.13
2023-03-20T23:17:33.844Z,14.37
2023-03-20T23:20:10.785Z,14.40
2023-03-20T23:22:38.491Z,14.29
2023-03-20T23:25:18.292Z,14.09
2023-03-20T23:27:51.387Z,13.85
2023-03-20T23:30:19.855Z,13.80
2023-03-20T23:32:48.254Z,13.77
2023-03-20T23:35:15.565Z,13.99
2023-03-20T23:37:42.815Z,14.07
2023-03-20T23:40:10.761Z,13.83
2023-03-20T23:42:38.116Z,13.94
2023-03-20T23:45:19.155Z,13.86
2023-03-20T23:47:48.329Z,13.77
2023-03-20T23:50:30.079Z,13.77
2023-03-20T23:53:13.055Z,13.85
2023-03-20T23:55:47.073Z,13.70
2023-03-20T23:58:14.790Z,13.76
